Terminal Aerodrome Forecast
Issued by NWS

Home | Current Version | Previous Version | Text Only | Print | Product List | Glossary On
Versions: 1 2 3 4 5 6 7 8 9 10 11 12 13 14 15 16 17
000
FTUS46 KMFR 271129
TAFOTH
TAF
KOTH 271129Z 2712/2812 36006KT 6SM BR OVC008
     FM271700 34009KT P6SM BKN015
     FM272000 35015G23KT P6SM SCT015
     FM280200 35012KT P6SM SCT003 BKN006 OVC012
     FM280400 01006KT 5SM BR OVC007=

USA.gov is the U.S. government's official web portal to all federal, state and local government web resources and services.